sensor_id;sensor_type;location;lat;lon;timestamp;temperature;humidity
15638;DHT22;26604;53.596;10.042;2023-05-07T00:01:36;9.60;99.90
15638;DHT22;26604;53.596;10.042;2023-05-07T00:04:04;9.50;99.90
15638;DHT22;26604;53.596;10.042;2023-05-07T00:06:32;9.50;99.90
15638;DHT22;26604;53.596;10.042;2023-05-07T00:08:59;9.50;99.90
15638;DHT22;26604;53.596;10.042;2023-05-07T00:11:26;9.50;99.90
15638;DHT22;26604;53.596;10.042;2023-05-07T00:13:53;9.50;99.90
15638;DHT22;26604;53.596;10.042;2023-05-07T00:16:20;9.50;99.90
15638;DHT22;26604;53.596;10.042;2023-05-07T00:18:47;9.50;99.90
15638;DHT22;26604;53.596;10.042;2023-05-07T00:21:15;9.50;99.90
15638;DHT22;26604;53.596;10.042;2023-05-07T00:23:42;9.50;99.90
15638;DHT22;26604;53.596;10.042;2023-05-07T00:26:09;9.50;99.90
15638;DHT22;26604;53.596;10.042;2023-05-07T00:28:36;9.50;99.90
15638;DHT22;26604;53.596;10.042;2023-05-07T00:31:03;9.50;99.90
15638;DHT22;26604;53.596;10.042;2023-05-07T00:33:30;9.50;99.90
15638;DHT22;26604;53.596;10.042;2023-05-07T00:35:57;9.50;99.90
15638;DHT22;26604;53.596;10.042;2023-05-07T00:38:25;9.50;99.90
15638;DHT22;26604;53.596;10.042;2023-05-07T00:40:52;9.50;99.90
15638;DHT22;26604;53.596;10.042;2023-05-07T00:43:18;9.50;99.90
15638;DHT22;26604;53.596;10.042;2023-05-07T00:45:46;9.50;99.90
15638;DHT22;26604;53.596;10.042;2023-05-07T00:48:13;9.50;99.90
15638;DHT22;26604;53.596;10.042;2023-05-07T00:50:40;9.50;99.90
15638;DHT22;26604;53.596;10.042;2023-05-07T00:53:07;9.50;99.90
15638;DHT22;26604;53.596;10.042;2023-05-07T00:55:35;9.60;99.90
15638;DHT22;26604;53.596;10.042;2023-05-07T00:58:02;9.60;99.90
15638;DHT22;26604;53.596;10.042;2023-05-07T01:00:29;8.90;99.90
15638;DHT22;26604;53.596;10.042;2023-05-07T01:02:57;9.50;99.90
15638;DHT22;26604;53.596;10.042;2023-05-07T01:05:24;9.60;99.90
15638;DHT22;26604;53.596;10.042;2023-05-07T01:07:53;9.60;99.90
15638;DHT22;26604;53.596;10.042;2023-05-07T01:10:21;9.60;99.90
15638;DHT22;26604;53.596;10.042;2023-05-07T01:12:50;9.60;99.90
15638;DHT22;26604;53.596;10.042;2023-05-07T01:15:18;9.60;99.90
15638;DHT22;26604;53.596;10.042;2023-05-07T01:17:45;9.60;99.90
15638;DHT22;26604;53.596;10.042;2023-05-07T01:20:12;9.70;99.90
15638;DHT22;26604;53.596;10.042;2023-05-07T01:22:40;9.70;99.90
15638;DHT22;26604;53.596;10.042;2023-05-07T01:25:08;9.70;99.90
15638;DHT22;26604;53.596;10.042;2023-05-07T01:27:35;9.60;99.90
15638;DHT22;26604;53.596;10.042;2023-05-07T01:30:03;9.60;99.90
15638;DHT22;26604;53.596;10.042;2023-05-07T01:32:33;9.60;99.90
15638;DHT22;26604;53.596;10.042;2023-05-07T01:35:02;9.60;99.90
15638;DHT22;26604;53.596;10.042;2023-05-07T01:37:32;9.50;99.90
15638;DHT22;26604;53.596;10.042;2023-05-07T01:40:01;9.60;99.90
15638;DHT22;26604;53.596;10.042;2023-05-07T01:42:29;9.60;99.90
15638;DHT22;26604;53.596;10.042;2023-05-07T01:44:56;9.50;99.90
15638;DHT22;26604;53.596;10.042;2023-05-07T01:47:23;9.60;99.90
15638;DHT22;26604;53.596;10.042;2023-05-07T01:49:50;9.50;99.90
15638;DHT22;26604;53.596;10.042;2023-05-07T01:52:18;9.60;99.90
15638;DHT22;26604;53.596;10.042;2023-05-07T01:54:44;9.50;99.90
15638;DHT22;26604;53.596;10.042;2023-05-07T01:57:12;9.50;99.90
15638;DHT22;26604;53.596;10.042;2023-05-07T01:59:39;9.50;99.90
15638;DHT22;26604;53.596;10.042;2023-05-07T02:02:06;9.50;99.90
15638;DHT22;26604;53.596;10.042;2023-05-07T02:04:33;9.50;99.90
15638;DHT22;26604;53.596;10.042;2023-05-07T02:07:00;9.50;99.90
15638;DHT22;26604;53.596;10.042;2023-05-07T02:09:27;9.50;99.90
15638;DHT22;26604;53.596;10.042;2023-05-07T02:11:54;9.50;99.90
15638;DHT22;26604;53.596;10.042;2023-05-07T02:14:22;9.50;99.90
15638;DHT22;26604;53.596;10.042;2023-05-07T02:16:49;9.60;99.90
15638;DHT22;26604;53.596;10.042;2023-05-07T02:19:16;9.50;99.90
15638;DHT22;26604;53.596;10.042;2023-05-07T02:21:43;9.60;99.90
15638;DHT22;26604;53.596;10.042;2023-05-07T02:24:10;9.60;99.90
15638;DHT22;26604;53.596;10.042;2023-05-07T02:26:37;9.60;99.90
15638;DHT22;26604;53.596;10.042;2023-05-07T02:29:04;9.60;99.90
15638;DHT22;26604;53.596;10.042;2023-05-07T02:31:32;9.50;99.90
15638;DHT22;26604;53.596;10.042;2023-05-07T02:34:00;9.50;99.90
15638;DHT22;26604;53.596;10.042;2023-05-07T02:36:27;9.60;99.90
15638;DHT22;26604;53.596;10.042;2023-05-07T02:38:54;9.50;99.90
15638;DHT22;26604;53.596;10.042;2023-05-07T02:41:21;9.40;99.90
15638;DHT22;26604;53.596;10.042;2023-05-07T02:43:48;9.40;99.90
15638;DHT22;26604;53.596;10.042;2023-05-07T02:46:15;9.40;99.90
15638;DHT22;26604;53.596;10.042;2023-05-07T02:48:43;9.40;99.90
15638;DHT22;26604;53.596;10.042;2023-05-07T02:51:10;9.40;99.90
15638;DHT22;26604;53.596;10.042;2023-05-07T02:53:37;9.40;99.90
15638;DHT22;26604;53.596;10.042;2023-05-07T02:56:04;9.40;99.90
15638;DHT22;26604;53.596;10.042;2023-05-07T02:58:31;9.50;99.90
15638;DHT22;26604;53.596;10.042;2023-05-07T03:00:58;9.50;99.90
15638;DHT22;26604;53.596;10.042;2023-05-07T03:03:25;9.50;99.90
15638;DHT22;26604;53.596;10.042;2023-05-07T03:05:53;9.50;99.90
15638;DHT22;26604;53.596;10.042;2023-05-07T03:08:20;9.50;99.90
15638;DHT22;26604;53.596;10.042;2023-05-07T03:10:47;9.50;99.90
15638;DHT22;26604;53.596;10.042;2023-05-07T03:13:14;9.50;99.90
15638;DHT22;26604;53.596;10.042;2023-05-07T03:15:41;9.50;99.90
15638;DHT22;26604;53.596;10.042;2023-05-07T03:18:08;9.50;99.90
15638;DHT22;26604;53.596;10.042;2023-05-07T03:20:35;9.50;99.90
15638;DHT22;26604;53.596;10.042;2023-05-07T03:23:03;9.40;99.90
15638;DHT22;26604;53.596;10.042;2023-05-07T03:25:30;9.40;99.90
15638;DHT22;26604;53.596;10.042;2023-05-07T03:27:57;9.40;99.90
15638;DHT22;26604;53.596;10.042;2023-05-07T03:30:24;9.40;99.90
15638;DHT22;26604;53.596;10.042;2023-05-07T03:32:51;9.40;99.90
15638;DHT22;26604;53.596;10.042;2023-05-07T03:35:18;9.40;99.90
15638;DHT22;26604;53.596;10.042;2023-05-07T03:37:45;9.40;99.90
15638;DHT22;26604;53.596;10.042;2023-05-07T03:40:13;9.40;99.90
15638;DHT22;26604;53.596;10.042;2023-05-07T03:42:40;9.40;99.90
15638;DHT22;26604;53.596;10.042;2023-05-07T03:45:08;9.40;99.90
15638;DHT22;26604;53.596;10.042;2023-05-07T03:47:35;9.40;99.90
15638;DHT22;26604;53.596;10.042;2023-05-07T03:50:02;9.50;99.90
15638;DHT22;26604;53.596;10.042;2023-05-07T03:52:29;9.40;99.90
15638;DHT22;26604;53.596;10.042;2023-05-07T03:54:55;9.40;99.90
15638;DHT22;26604;53.596;10.042;2023-05-07T03:57:24;9.40;99.90
15638;DHT22;26604;53.596;10.042;2023-05-07T03:59:50;9.40;99.90
15638;DHT22;26604;53.596;10.042;2023-05-07T04:02:17;9.40;99.90
15638;DHT22;26604;53.596;10.042;2023-05-07T04:04:44;9.40;99.90
15638;DHT22;26604;53.596;10.042;2023-05-07T04:07:11;9.50;99.90
15638;DHT22;26604;53.596;10.042;2023-05-07T04:09:38;9.50;99.90
15638;DHT22;26604;53.596;10.042;2023-05-07T04:12:05;9.50;99.90
15638;DHT22;26604;53.596;10.042;2023-05-07T04:14:33;9.50;99.90
15638;DHT22;26604;53.596;10.042;2023-05-07T04:17:00;9.50;99.90
15638;DHT22;26604;53.596;10.042;2023-05-07T04:19:28;9.60;99.90
15638;DHT22;26604;53.596;10.042;2023-05-07T04:21:55;9.60;99.90
15638;DHT22;26604;53.596;10.042;2023-05-07T04:24:21;9.70;99.90
15638;DHT22;26604;53.596;10.042;2023-05-07T04:26:48;9.60;99.90
15638;DHT22;26604;53.596;10.042;2023-05-07T04:29:16;9.70;99.90
15638;DHT22;26604;53.596;10.042;2023-05-07T04:31:44;9.60;99.90
15638;DHT22;26604;53.596;10.042;2023-05-07T04:34:11;9.60;99.90
15638;DHT22;26604;53.596;10.042;2023-05-07T04:36:38;9.70;99.90
15638;DHT22;26604;53.596;10.042;2023-05-07T04:39:05;9.70;99.90
15638;DHT22;26604;53.596;10.042;2023-05-07T04:41:32;9.70;99.90
15638;DHT22;26604;53.596;10.042;2023-05-07T04:43:59;9.70;99.90
15638;DHT22;26604;53.596;10.042;2023-05-07T04:46:26;9.80;99.90
15638;DHT22;26604;53.596;10.042;2023-05-07T04:48:54;9.80;99.90
15638;DHT22;26604;53.596;10.042;2023-05-07T04:51:21;9.70;99.90
15638;DHT22;26604;53.596;10.042;2023-05-07T04:53:49;9.80;99.90
15638;DHT22;26604;53.596;10.042;2023-05-07T04:56:16;9.70;99.90
15638;DHT22;26604;53.596;10.042;2023-05-07T04:58:42;9.80;99.90
15638;DHT22;26604;53.596;10.042;2023-05-07T05:01:09;9.90;99.90
15638;DHT22;26604;53.596;10.042;2023-05-07T05:03:36;9.90;99.90
15638;DHT22;26604;53.596;10.042;2023-05-07T05:06:06;9.90;99.90
15638;DHT22;26604;53.596;10.042;2023-05-07T05:08:33;9.90;99.90
15638;DHT22;26604;53.596;10.042;2023-05-07T05:11:00;9.90;99.90
15638;DHT22;26604;53.596;10.042;2023-05-07T05:13:27;10.00;99.90
15638;DHT22;26604;53.596;10.042;2023-05-07T05:15:54;9.90;99.90
15638;DHT22;26604;53.596;10.042;2023-05-07T05:18:21;10.10;99.90
15638;DHT22;26604;53.596;10.042;2023-05-07T05:20:48;10.10;99.90
15638;DHT22;26604;53.596;10.042;2023-05-07T05:23:16;10.10;99.90
15638;DHT22;26604;53.596;10.042;2023-05-07T05:25:43;10.10;99.90
15638;DHT22;26604;53.596;10.042;2023-05-07T05:28:10;10.20;99.90
15638;DHT22;26604;53.596;10.042;2023-05-07T05:30:37;10.20;99.90
15638;DHT22;26604;53.596;10.042;2023-05-07T05:33:03;10.20;99.90
15638;DHT22;26604;53.596;10.042;2023-05-07T05:35:30;10.30;99.90
15638;DHT22;26604;53.596;10.042;2023-05-07T05:37:57;10.20;99.90
15638;DHT22;26604;53.596;10.042;2023-05-07T05:40:25;10.30;99.90
15638;DHT22;26604;53.596;10.042;2023-05-07T05:42:52;10.40;99.90
15638;DHT22;26604;53.596;10.042;2023-05-07T05:45:19;10.50;99.90
15638;DHT22;26604;53.596;10.042;2023-05-07T05:47:46;10.50;99.90
15638;DHT22;26604;53.596;10.042;2023-05-07T05:50:13;10.50;99.90
15638;DHT22;26604;53.596;10.042;2023-05-07T05:52:40;10.50;99.90
15638;DHT22;26604;53.596;10.042;2023-05-07T05:55:08;10.60;99.90
15638;DHT22;26604;53.596;10.042;2023-05-07T05:57:36;10.50;99.90
15638;DHT22;26604;53.596;10.042;2023-05-07T06:00:04;10.60;99.90
15638;DHT22;26604;53.596;10.042;2023-05-07T06:02:31;10.60;99.90
15638;DHT22;26604;53.596;10.042;2023-05-07T06:04:58;10.60;99.90
15638;DHT22;26604;53.596;10.042;2023-05-07T06:07:25;10.60;99.90
15638;DHT22;26604;53.596;10.042;2023-05-07T06:09:52;10.60;99.90
15638;DHT22;26604;53.596;10.042;2023-05-07T06:12:19;10.70;99.90
15638;DHT22;26604;53.596;10.042;2023-05-07T06:14:47;10.70;99.90
15638;DHT22;26604;53.596;10.042;2023-05-07T06:17:14;10.70;99.90
15638;DHT22;26604;53.596;10.042;2023-05-07T06:19:41;10.70;99.90
15638;DHT22;26604;53.596;10.042;2023-05-07T06:22:07;10.70;99.90
15638;DHT22;26604;53.596;10.042;2023-05-07T06:24:35;10.80;99.90
15638;DHT22;26604;53.596;10.042;2023-05-07T06:27:02;10.70;99.90
15638;DHT22;26604;53.596;10.042;2023-05-07T06:29:29;10.70;99.90
15638;DHT22;26604;53.596;10.042;2023-05-07T06:32:06;10.70;99.90
15638;DHT22;26604;53.596;10.042;2023-05-07T06:34:33;10.70;99.90
15638;DHT22;26604;53.596;10.042;2023-05-07T06:37:00;10.70;99.90
15638;DHT22;26604;53.596;10.042;2023-05-07T06:39:27;10.70;99.90
15638;DHT22;26604;53.596;10.042;2023-05-07T06:41:54;10.60;99.90
15638;DHT22;26604;53.596;10.042;2023-05-07T06:44:21;10.60;99.90
15638;DHT22;26604;53.596;10.042;2023-05-07T06:46:47;10.60;99.90
15638;DHT22;26604;53.596;10.042;2023-05-07T06:49:16;10.50;99.90
15638;DHT22;26604;53.596;10.042;2023-05-07T06:51:42;10.70;99.90
15638;DHT22;26604;53.596;10.042;2023-05-07T06:54:09;10.70;99.90
15638;DHT22;26604;53.596;10.042;2023-05-07T06:56:36;10.80;99.90
15638;DHT22;26604;53.596;10.042;2023-05-07T06:59:03;10.90;99.90
15638;DHT22;26604;53.596;10.042;2023-05-07T07:01:30;11.00;99.90
15638;DHT22;26604;53.596;10.042;2023-05-07T07:03:57;11.10;99.90
15638;DHT22;26604;53.596;10.042;2023-05-07T07:06:25;11.20;99.90
15638;DHT22;26604;53.596;10.042;2023-05-07T07:08:52;11.30;99.90
15638;DHT22;26604;53.596;10.042;2023-05-07T07:11:19;11.30;99.90
15638;DHT22;26604;53.596;10.042;2023-05-07T07:13:46;11.30;99.90
15638;DHT22;26604;53.596;10.042;2023-05-07T07:16:13;11.40;99.90
15638;DHT22;26604;53.596;10.042;2023-05-07T07:18:40;11.40;99.90
15638;DHT22;26604;53.596;10.042;2023-05-07T07:21:06;11.50;99.90
15638;DHT22;26604;53.596;10.042;2023-05-07T07:23:35;11.60;99.90
15638;DHT22;26604;53.596;10.042;2023-05-07T07:26:02;11.70;99.90
15638;DHT22;26604;53.596;10.042;2023-05-07T07:28:28;11.80;99.90
15638;DHT22;26604;53.596;10.042;2023-05-07T07:30:55;11.90;99.90
15638;DHT22;26604;53.596;10.042;2023-05-07T07:33:22;11.90;99.90
15638;DHT22;26604;53.596;10.042;2023-05-07T07:35:49;12.00;99.90
15638;DHT22;26604;53.596;10.042;2023-05-07T07:38:16;12.00;99.90
15638;DHT22;26604;53.596;10.042;2023-05-07T07:40:44;12.10;99.90
15638;DHT22;26604;53.596;10.042;2023-05-07T07:43:11;12.10;99.90
15638;DHT22;26604;53.596;10.042;2023-05-07T07:45:38;12.20;99.90
15638;DHT22;26604;53.596;10.042;2023-05-07T07:48:05;12.30;99.90
15638;DHT22;26604;53.596;10.042;2023-05-07T07:50:32;12.40;99.90
15638;DHT22;26604;53.596;10.042;2023-05-07T07:52:59;12.60;99.90
15638;DHT22;26604;53.596;10.042;2023-05-07T07:55:26;12.70;99.90
15638;DHT22;26604;53.596;10.042;2023-05-07T07:57:54;12.70;99.90
15638;DHT22;26604;53.596;10.042;2023-05-07T08:00:21;12.80;99.90
15638;DHT22;26604;53.596;10.042;2023-05-07T08:02:48;12.80;99.90
15638;DHT22;26604;53.596;10.042;2023-05-07T08:05:15;12.80;99.90
15638;DHT22;26604;53.596;10.042;2023-05-07T08:07:41;12.90;99.90
15638;DHT22;26604;53.596;10.042;2023-05-07T08:10:09;12.90;99.90
15638;DHT22;26604;53.596;10.042;2023-05-07T08:12:36;12.90;99.90
15638;DHT22;26604;53.596;10.042;2023-05-07T08:15:05;13.00;99.90
15638;DHT22;26604;53.596;10.042;2023-05-07T08:17:32;13.00;99.90
15638;DHT22;26604;53.596;10.042;2023-05-07T08:19:59;13.10;99.90
15638;DHT22;26604;53.596;10.042;2023-05-07T08:22:26;13.00;99.90
15638;DHT22;26604;53.596;10.042;2023-05-07T08:24:52;12.90;99.90
15638;DHT22;26604;53.596;10.042;2023-05-07T08:27:20;13.00;99.90
15638;DHT22;26604;53.596;10.042;2023-05-07T08:29:46;13.10;99.90
15638;DHT22;26604;53.596;10.042;2023-05-07T08:32:15;13.20;99.90
15638;DHT22;26604;53.596;10.042;2023-05-07T08:34:42;13.30;99.90
15638;DHT22;26604;53.596;10.042;2023-05-07T08:37:09;13.40;99.90
15638;DHT22;26604;53.596;10.042;2023-05-07T08:39:36;13.50;99.90
15638;DHT22;26604;53.596;10.042;2023-05-07T08:42:04;13.60;99.90
15638;DHT22;26604;53.596;10.042;2023-05-07T08:44:33;13.60;99.90
15638;DHT22;26604;53.596;10.042;2023-05-07T08:47:01;13.50;99.90
15638;DHT22;26604;53.596;10.042;2023-05-07T08:49:30;13.50;99.90
15638;DHT22;26604;53.596;10.042;2023-05-07T08:51:57;13.50;99.90
15638;DHT22;26604;53.596;10.042;2023-05-07T08:54:25;13.60;99.90
15638;DHT22;26604;53.596;10.042;2023-05-07T08:56:52;13.60;99.90
15638;DHT22;26604;53.596;10.042;2023-05-07T08:59:19;13.60;99.90
15638;DHT22;26604;53.596;10.042;2023-05-07T09:01:46;13.70;99.90
15638;DHT22;26604;53.596;10.042;2023-05-07T09:04:13;13.70;99.90
15638;DHT22;26604;53.596;10.042;2023-05-07T09:06:41;13.60;99.90
15638;DHT22;26604;53.596;10.042;2023-05-07T09:09:08;13.60;99.90
15638;DHT22;26604;53.596;10.042;2023-05-07T09:11:35;13.80;99.90
15638;DHT22;26604;53.596;10.042;2023-05-07T09:14:02;14.00;99.90
15638;DHT22;26604;53.596;10.042;2023-05-07T09:16:30;14.10;99.90
15638;DHT22;26604;53.596;10.042;2023-05-07T09:18:58;14.40;99.90
15638;DHT22;26604;53.596;10.042;2023-05-07T09:21:25;14.50;99.90
15638;DHT22;26604;53.596;10.042;2023-05-07T09:23:55;14.50;99.90
15638;DHT22;26604;53.596;10.042;2023-05-07T09:26:22;14.40;99.90
15638;DHT22;26604;53.596;10.042;2023-05-07T09:28:51;14.30;99.90
15638;DHT22;26604;53.596;10.042;2023-05-07T09:31:19;14.30;99.90
15638;DHT22;26604;53.596;10.042;2023-05-07T09:33:46;14.30;99.90
15638;DHT22;26604;53.596;10.042;2023-05-07T09:36:13;14.40;99.90
15638;DHT22;26604;53.596;10.042;2023-05-07T09:38:40;14.60;99.90
15638;DHT22;26604;53.596;10.042;2023-05-07T09:41:09;14.80;99.90
15638;DHT22;26604;53.596;10.042;2023-05-07T09:43:39;14.90;99.90
15638;DHT22;26604;53.596;10.042;2023-05-07T09:46:08;15.10;99.90
15638;DHT22;26604;53.596;10.042;2023-05-07T09:48:38;15.20;99.90
15638;DHT22;26604;53.596;10.042;2023-05-07T09:51:14;15.20;99.90
15638;DHT22;26604;53.596;10.042;2023-05-07T09:53:43;15.40;99.90
15638;DHT22;26604;53.596;10.042;2023-05-07T09:56:13;15.50;99.90
15638;DHT22;26604;53.596;10.042;2023-05-07T09:58:42;15.40;99.90
15638;DHT22;26604;53.596;10.042;2023-05-07T10:01:10;15.60;99.90
15638;DHT22;26604;53.596;10.042;2023-05-07T10:03:40;15.60;99.90
15638;DHT22;26604;53.596;10.042;2023-05-07T10:06:08;15.60;99.90
15638;DHT22;26604;53.596;10.042;2023-05-07T10:08:36;15.60;99.90
15638;DHT22;26604;53.596;10.042;2023-05-07T10:11:04;15.60;99.90
15638;DHT22;26604;53.596;10.042;2023-05-07T10:13:33;15.60;99.90
15638;DHT22;26604;53.596;10.042;2023-05-07T10:16:01;15.60;99.90
15638;DHT22;26604;53.596;10.042;2023-05-07T10:18:30;15.60;99.90
15638;DHT22;26604;53.596;10.042;2023-05-07T10:21:02;15.80;99.90
15638;DHT22;26604;53.596;10.042;2023-05-07T10:23:32;15.80;99.90
15638;DHT22;26604;53.596;10.042;2023-05-07T10:26:01;15.90;99.90
15638;DHT22;26604;53.596;10.042;2023-05-07T10:28:29;15.90;99.90
15638;DHT22;26604;53.596;10.042;2023-05-07T10:31:10;15.80;99.90
15638;DHT22;26604;53.596;10.042;2023-05-07T10:33:42;15.70;99.90
15638;DHT22;26604;53.596;10.042;2023-05-07T10:36:11;15.80;99.90
15638;DHT22;26604;53.596;10.042;2023-05-07T10:38:38;15.90;99.90
15638;DHT22;26604;53.596;10.042;2023-05-07T10:41:06;15.90;99.90
15638;DHT22;26604;53.596;10.042;2023-05-07T10:43:43;15.80;99.90
15638;DHT22;26604;53.596;10.042;2023-05-07T10:46:15;15.70;99.90
15638;DHT22;26604;53.596;10.042;2023-05-07T10:49:07;15.60;99.90
15638;DHT22;26604;53.596;10.042;2023-05-07T10:51:36;15.60;99.90
15638;DHT22;26604;53.596;10.042;2023-05-07T10:54:21;15.60;99.90
15638;DHT22;26604;53.596;10.042;2023-05-07T10:56:49;15.50;99.90
15638;DHT22;26604;53.596;10.042;2023-05-07T10:59:36;15.60;99.90
15638;DHT22;26604;53.596;10.042;2023-05-07T11:02:10;15.60;99.90
15638;DHT22;26604;53.596;10.042;2023-05-07T11:04:39;15.60;99.90
15638;DHT22;26604;53.596;10.042;2023-05-07T11:07:30;15.70;99.90
15638;DHT22;26604;53.596;10.042;2023-05-07T11:09:59;15.90;99.90
15638;DHT22;26604;53.596;10.042;2023-05-07T11:12:49;15.90;99.90
15638;DHT22;26604;53.596;10.042;2023-05-07T11:15:40;15.90;99.90
15638;DHT22;26604;53.596;10.042;2023-05-07T11:18:09;15.90;99.90
15638;DHT22;26604;53.596;10.042;2023-05-07T11:20:53;16.10;99.90
15638;DHT22;26604;53.596;10.042;2023-05-07T11:23:57;16.20;99.90
15638;DHT22;26604;53.596;10.042;2023-05-07T11:26:25;16.30;99.90
15638;DHT22;26604;53.596;10.042;2023-05-07T11:28:52;16.40;99.90
15638;DHT22;26604;53.596;10.042;2023-05-07T11:31:24;16.60;99.90
15638;DHT22;26604;53.596;10.042;2023-05-07T11:33:53;16.60;99.90
15638;DHT22;26604;53.596;10.042;2023-05-07T11:36:22;16.60;99.90
15638;DHT22;26604;53.596;10.042;2023-05-07T11:38:50;16.70;99.90
15638;DHT22;26604;53.596;10.042;2023-05-07T11:41:17;16.80;99.90
15638;DHT22;26604;53.596;10.042;2023-05-07T11:43:57;16.90;99.90
15638;DHT22;26604;53.596;10.042;2023-05-07T11:46:24;17.00;99.90
15638;DHT22;26604;53.596;10.042;2023-05-07T11:48:52;17.10;99.90
15638;DHT22;26604;53.596;10.042;2023-05-07T11:51:23;17.20;99.90
15638;DHT22;26604;53.596;10.042;2023-05-07T11:53:52;17.20;99.90
15638;DHT22;26604;53.596;10.042;2023-05-07T11:56:19;17.30;99.90
15638;DHT22;26604;53.596;10.042;2023-05-07T11:58:49;17.40;99.90
15638;DHT22;26604;53.596;10.042;2023-05-07T12:01:17;17.40;99.90
15638;DHT22;26604;53.596;10.042;2023-05-07T12:03:45;17.20;99.90
15638;DHT22;26604;53.596;10.042;2023-05-07T12:06:15;17.10;99.90
15638;DHT22;26604;53.596;10.042;2023-05-07T12:08:43;17.00;99.90
15638;DHT22;26604;53.596;10.042;2023-05-07T12:11:14;17.00;99.90
15638;DHT22;26604;53.596;10.042;2023-05-07T12:13:43;17.10;99.90
15638;DHT22;26604;53.596;10.042;2023-05-07T12:16:10;17.20;99.90
15638;DHT22;26604;53.596;10.042;2023-05-07T12:18:37;17.20;99.90
15638;DHT22;26604;53.596;10.042;2023-05-07T12:21:05;17.20;99.90
15638;DHT22;26604;53.596;10.042;2023-05-07T12:23:35;17.30;99.90
15638;DHT22;26604;53.596;10.042;2023-05-07T12:26:03;17.40;99.90
15638;DHT22;26604;53.596;10.042;2023-05-07T12:28:30;17.40;99.90
15638;DHT22;26604;53.596;10.042;2023-05-07T12:30:57;17.30;99.90
15638;DHT22;26604;53.596;10.042;2023-05-07T12:33:26;17.20;99.90
15638;DHT22;26604;53.596;10.042;2023-05-07T12:35:55;17.20;99.90
15638;DHT22;26604;53.596;10.042;2023-05-07T12:38:22;17.10;99.90
15638;DHT22;26604;53.596;10.042;2023-05-07T12:40:54;17.10;99.90
15638;DHT22;26604;53.596;10.042;2023-05-07T12:43:23;17.00;99.90
15638;DHT22;26604;53.596;10.042;2023-05-07T12:45:52;17.00;99.90
15638;DHT22;26604;53.596;10.042;2023-05-07T12:48:21;17.10;99.90
15638;DHT22;26604;53.596;10.042;2023-05-07T12:50:52;17.00;99.90
15638;DHT22;26604;53.596;10.042;2023-05-07T12:53:22;17.00;99.90
15638;DHT22;26604;53.596;10.042;2023-05-07T12:55:51;17.00;99.90
15638;DHT22;26604;53.596;10.042;2023-05-07T12:58:19;17.00;99.90
15638;DHT22;26604;53.596;10.042;2023-05-07T13:00:48;17.00;99.90
15638;DHT22;26604;53.596;10.042;2023-05-07T13:03:21;17.00;99.90
15638;DHT22;26604;53.596;10.042;2023-05-07T13:05:49;17.00;99.90
15638;DHT22;26604;53.596;10.042;2023-05-07T13:08:27;17.00;99.90
15638;DHT22;26604;53.596;10.042;2023-05-07T13:10:57;16.90;99.90
15638;DHT22;26604;53.596;10.042;2023-05-07T13:13:25;16.90;99.90
15638;DHT22;26604;53.596;10.042;2023-05-07T13:15:52;16.90;99.90
15638;DHT22;26604;53.596;10.042;2023-05-07T13:18:18;16.90;99.90
15638;DHT22;26604;53.596;10.042;2023-05-07T13:20:45;16.90;99.90
15638;DHT22;26604;53.596;10.042;2023-05-07T13:23:12;17.00;99.90
15638;DHT22;26604;53.596;10.042;2023-05-07T13:25:39;16.90;99.90
15638;DHT22;26604;53.596;10.042;2023-05-07T13:28:07;16.90;99.90
15638;DHT22;26604;53.596;10.042;2023-05-07T13:30:34;16.90;99.90
15638;DHT22;26604;53.596;10.042;2023-05-07T13:33:01;17.00;99.90
15638;DHT22;26604;53.596;10.042;2023-05-07T13:35:28;17.10;99.90
15638;DHT22;26604;53.596;10.042;2023-05-07T13:37:55;17.20;99.90
15638;DHT22;26604;53.596;10.042;2023-05-07T13:40:22;17.30;99.90
15638;DHT22;26604;53.596;10.042;2023-05-07T13:42:49;17.40;99.90
15638;DHT22;26604;53.596;10.042;2023-05-07T13:45:18;17.50;99.90
15638;DHT22;26604;53.596;10.042;2023-05-07T13:47:45;17.60;99.90
15638;DHT22;26604;53.596;10.042;2023-05-07T13:50:12;17.60;99.90
15638;DHT22;26604;53.596;10.042;2023-05-07T13:52:41;17.60;99.90
15638;DHT22;26604;53.596;10.042;2023-05-07T13:55:09;17.50;99.90
15638;DHT22;26604;53.596;10.042;2023-05-07T13:57:38;17.50;99.90
15638;DHT22;26604;53.596;10.042;2023-05-07T14:00:06;17.50;99.90
15638;DHT22;26604;53.596;10.042;2023-05-07T14:02:34;17.50;99.90
15638;DHT22;26604;53.596;10.042;2023-05-07T14:08:22;17.40;99.90
15638;DHT22;26604;53.596;10.042;2023-05-07T14:10:49;17.50;99.90
15638;DHT22;26604;53.596;10.042;2023-05-07T14:13:16;17.50;99.90
15638;DHT22;26604;53.596;10.042;2023-05-07T14:15:43;17.50;99.90
15638;DHT22;26604;53.596;10.042;2023-05-07T14:18:13;17.50;99.90
15638;DHT22;26604;53.596;10.042;2023-05-07T14:20:40;17.40;99.90
15638;DHT22;26604;53.596;10.042;2023-05-07T14:23:08;17.30;99.90
15638;DHT22;26604;53.596;10.042;2023-05-07T14:25:35;17.30;99.90
15638;DHT22;26604;53.596;10.042;2023-05-07T14:28:02;17.30;99.90
15638;DHT22;26604;53.596;10.042;2023-05-07T14:30:29;17.30;99.90
15638;DHT22;26604;53.596;10.042;2023-05-07T14:32:56;17.30;99.90
15638;DHT22;26604;53.596;10.042;2023-05-07T14:35:24;17.30;99.90
15638;DHT22;26604;53.596;10.042;2023-05-07T14:37:51;17.40;99.90
15638;DHT22;26604;53.596;10.042;2023-05-07T14:40:18;17.40;99.90
15638;DHT22;26604;53.596;10.042;2023-05-07T14:42:45;17.50;99.90
15638;DHT22;26604;53.596;10.042;2023-05-07T14:45:11;17.50;99.90
15638;DHT22;26604;53.596;10.042;2023-05-07T14:47:38;17.50;99.90
15638;DHT22;26604;53.596;10.042;2023-05-07T14:50:06;17.50;99.90
15638;DHT22;26604;53.596;10.042;2023-05-07T14:52:34;17.50;99.90
15638;DHT22;26604;53.596;10.042;2023-05-07T14:55:01;17.50;99.90
15638;DHT22;26604;53.596;10.042;2023-05-07T14:57:28;17.50;99.90
15638;DHT22;26604;53.596;10.042;2023-05-07T14:59:55;17.50;99.90
15638;DHT22;26604;53.596;10.042;2023-05-07T15:02:22;17.50;99.90
15638;DHT22;26604;53.596;10.042;2023-05-07T15:04:49;17.50;99.90
15638;DHT22;26604;53.596;10.042;2023-05-07T15:07:16;17.50;99.90
15638;DHT22;26604;53.596;10.042;2023-05-07T15:09:45;17.60;99.90
15638;DHT22;26604;53.596;10.042;2023-05-07T15:12:13;17.80;99.90
15638;DHT22;26604;53.596;10.042;2023-05-07T15:14:41;18.00;99.90
15638;DHT22;26604;53.596;10.042;2023-05-07T15:17:08;18.10;99.90
15638;DHT22;26604;53.596;10.042;2023-05-07T15:19:34;18.10;99.90
15638;DHT22;26604;53.596;10.042;2023-05-07T15:22:01;18.20;99.90
15638;DHT22;26604;53.596;10.042;2023-05-07T15:24:28;18.30;99.90
15638;DHT22;26604;53.596;10.042;2023-05-07T15:26:57;18.30;99.90
15638;DHT22;26604;53.596;10.042;2023-05-07T15:29:24;18.30;99.90